createdAt,value
2022-10-22T00:00:08.209Z,100834.91
2022-10-22T00:00:30.816Z,100827.72
2022-10-22T00:01:04.954Z,100835.63
2022-10-22T00:01:24.731Z,100834.66
2022-10-22T00:01:38.930Z,100836.50
2022-10-22T00:01:51.673Z,100833.81
2022-10-22T00:02:07.580Z,100830.28
2022-10-22T00:02:20.721Z,100837.34
2022-10-22T00:02:33.499Z,100834.66
2022-10-22T00:02:46.267Z,100832.97
2022-10-22T00:02:59.067Z,100839.03
2022-10-22T00:03:11.856Z,100828.44
2022-10-22T00:03:25.509Z,100828.44
2022-10-22T00:03:38.234Z,100835.50
2022-10-22T00:03:50.887Z,100833.81
2022-10-22T00:04:04.015Z,100834.66
2022-10-22T00:04:16.596Z,100831.84
2022-10-22T00:04:32.951Z,100835.50
2022-10-22T00:04:50.044Z,100834.66
2022-10-22T00:05:02.818Z,100834.66
2022-10-22T00:05:15.458Z,100831.00
2022-10-22T00:05:28.128Z,100830.13
2022-10-22T00:05:40.707Z,100833.69
2022-10-22T00:05:53.341Z,100831.00
2022-10-22T00:06:06.456Z,100831.84
2022-10-22T00:06:20.080Z,100836.38
2022-10-22T00:06:33.529Z,100833.69
2022-10-22T00:06:46.180Z,100825.66
2022-10-22T00:06:59.490Z,100827.34
2022-10-22T00:07:12.113Z,100826.50
2022-10-22T00:07:26.150Z,100833.53
2022-10-22T00:07:39.371Z,100831.00
2022-10-22T00:07:53.234Z,100830.13
2022-10-22T00:08:06.288Z,100827.34
2022-10-22T00:08:18.912Z,100831.72
2022-10-22T00:08:31.612Z,100830.88
2022-10-22T00:08:44.279Z,100820.16
2022-10-22T00:08:57.192Z,100825.41
2022-10-22T00:09:10.893Z,100831.59
2022-10-22T00:09:23.544Z,100828.06
2022-10-22T00:09:37.595Z,100828.06
2022-10-22T00:09:50.352Z,100826.34
2022-10-22T00:10:04.703Z,100831.59
2022-10-22T00:10:17.724Z,100824.56
2022-10-22T00:10:30.316Z,100826.25
2022-10-22T00:10:43.010Z,100832.44
2022-10-22T00:10:56.799Z,100815.53
2022-10-22T00:11:11.023Z,100824.66
2022-10-22T00:11:23.625Z,100825.28
2022-10-22T00:11:36.265Z,100827.22
2022-10-22T00:11:48.841Z,100820.03
2022-10-22T00:12:01.480Z,100826.25
2022-10-22T00:12:15.100Z,100819.03
2022-10-22T00:12:28.952Z,100828.81
2022-10-22T00:12:41.548Z,100825.13
2022-10-22T00:12:54.146Z,100831.47
2022-10-22T00:13:07.302Z,100823.56
2022-10-22T00:13:20.310Z,100819.78
2022-10-22T00:13:32.867Z,100823.44
2022-10-22T00:14:06.215Z,100825.13
2022-10-22T00:14:19.548Z,100825.13
2022-10-22T00:14:32.137Z,100831.34
2022-10-22T00:14:44.975Z,100826.97
2022-10-22T00:14:57.569Z,100821.59
2022-10-22T00:15:12.086Z,100822.44
2022-10-22T00:15:24.916Z,100825.13
2022-10-22T00:15:37.623Z,100821.59
2022-10-22T00:15:51.249Z,100831.22
2022-10-22T00:16:03.940Z,100827.69
2022-10-22T00:16:17.206Z,100825.13
2022-10-22T00:16:29.802Z,100824.06
2022-10-22T00:16:42.456Z,100830.38
2022-10-22T00:16:56.390Z,100825.00
2022-10-22T00:17:11.525Z,100826.97
2022-10-22T00:17:25.453Z,100824.16
2022-10-22T00:17:38.326Z,100828.53
2022-10-22T00:17:51.117Z,100824.16
2022-10-22T00:18:03.808Z,100825.84
2022-10-22T00:18:16.782Z,100823.19
2022-10-22T00:18:29.560Z,100824.91
2022-10-22T00:18:42.256Z,100818.81
2022-10-22T00:18:54.835Z,100823.19
2022-10-22T00:19:09.214Z,100821.50
2022-10-22T00:19:21.788Z,100825.75
2022-10-22T00:19:34.533Z,100823.19
2022-10-22T00:19:47.119Z,100826.84
2022-10-22T00:19:59.977Z,100820.66
2022-10-22T00:20:12.560Z,100823.19
2022-10-22T00:20:25.160Z,100821.50
2022-10-22T00:20:37.776Z,100824.06
2022-10-22T00:20:51.356Z,100820.50
2022-10-22T00:21:05.014Z,100821.50
2022-10-22T00:21:17.688Z,100821.38
2022-10-22T00:21:30.794Z,100825.84
2022-10-22T00:21:43.388Z,100826.59
2022-10-22T00:21:55.992Z,100816.13
2022-10-22T00:22:10.203Z,100830.25
2022-10-22T00:22:22.764Z,100818.81
2022-10-22T00:22:35.388Z,100823.19
2022-10-22T00:22:48.228Z,100824.16
2022-10-22T00:23:00.856Z,100822.34
2022-10-22T00:23:13.603Z,100820.38
2022-10-22T00:23:26.289Z,100824.06
2022-10-22T00:23:41.664Z,100824.91
2022-10-22T00:23:54.277Z,100825.75
2022-10-22T00:24:07.038Z,100825.84
2022-10-22T00:24:19.873Z,100826.59
2022-10-22T00:24:32.879Z,100826.59
2022-10-22T00:24:46.832Z,100820.50
2022-10-22T00:24:59.618Z,100823.19
2022-10-22T00:25:12.185Z,100823.19
2022-10-22T00:25:25.975Z,100823.06
2022-10-22T00:25:38.528Z,100818.69
2022-10-22T00:25:51.146Z,100822.22
2022-10-22T00:26:03.724Z,100821.22
2022-10-22T00:26:16.325Z,100824.91
2022-10-22T00:26:28.882Z,100825.63
2022-10-22T00:26:41.481Z,100822.06
2022-10-22T00:26:54.060Z,100817.69
2022-10-22T00:27:08.504Z,100820.38
2022-10-22T00:27:21.216Z,100823.91
2022-10-22T00:27:33.822Z,100822.06
2022-10-22T00:27:46.480Z,100822.06
2022-10-22T00:27:59.242Z,100822.22
2022-10-22T00:28:11.801Z,100818.53
2022-10-22T00:28:24.693Z,100815.16
2022-10-22T00:28:38.544Z,100821.22
2022-10-22T00:28:51.116Z,100823.06
2022-10-22T00:29:03.690Z,100820.38
2022-10-22T00:29:18.722Z,100826.47
2022-10-22T00:29:31.573Z,100822.94
2022-10-22T00:29:44.231Z,100821.22
2022-10-22T00:29:56.854Z,100821.22
2022-10-22T00:30:11.236Z,100816.72
2022-10-22T00:30:23.782Z,100823.78
2022-10-22T00:30:36.356Z,100824.63
2022-10-22T00:30:48.999Z,100816.72
2022-10-22T00:31:02.204Z,100818.31
2022-10-22T00:31:15.678Z,100821.94
2022-10-22T00:31:28.337Z,100819.28
2022-10-22T00:31:41.884Z,100813.91
2022-10-22T00:32:07.630Z,100819.16
2022-10-22T00:32:20.245Z,100821.00
2022-10-22T00:32:33.099Z,100820.13
2022-10-22T00:32:45.793Z,100814.75
2022-10-22T00:32:58.357Z,100812.22
2022-10-22T00:33:11.940Z,100815.75
2022-10-22T00:33:24.560Z,100815.63
2022-10-22T00:33:37.124Z,100813.06
2022-10-22T00:33:49.994Z,100811.34
2022-10-22T00:34:02.990Z,100811.50
2022-10-22T00:34:16.183Z,100819.28
2022-10-22T00:34:29.073Z,100817.59
2022-10-22T00:34:42.677Z,100812.22
2022-10-22T00:34:55.256Z,100817.59
2022-10-22T00:35:08.087Z,100817.59
2022-10-22T00:35:21.177Z,100814.91
2022-10-22T00:35:33.744Z,100814.75
2022-10-22T00:35:47.483Z,100815.88
2022-10-22T00:36:01.108Z,100810.41
2022-10-22T00:36:13.762Z,100816.59
2022-10-22T00:36:26.328Z,100816.72
2022-10-22T00:36:38.862Z,100809.66
2022-10-22T00:36:51.850Z,100812.22
2022-10-22T00:37:04.546Z,100811.34
2022-10-22T00:37:18.289Z,100813.91
2022-10-22T00:37:31.239Z,100813.91
2022-10-22T00:37:43.840Z,100809.56
2022-10-22T00:37:56.400Z,100810.50
2022-10-22T00:38:08.978Z,100814.91
2022-10-22T00:38:21.741Z,100812.22
2022-10-22T00:38:34.380Z,100813.06
2022-10-22T00:38:46.954Z,100813.06
2022-10-22T00:38:59.537Z,100813.91
2022-10-22T00:39:16.086Z,100816.59
2022-10-22T00:39:29.262Z,100813.91
2022-10-22T00:39:42.133Z,100813.91
2022-10-22T00:39:56.133Z,100813.19
2022-10-22T00:40:10.407Z,100805.16
2022-10-22T00:40:23.102Z,100815.88
2022-10-22T00:40:36.645Z,100816.59
2022-10-22T00:40:49.271Z,100810.41
2022-10-22T00:41:19.557Z,100818.44
2022-10-22T00:41:32.121Z,100819.28
2022-10-22T00:41:45.776Z,100818.44
2022-10-22T00:42:00.586Z,100819.28
2022-10-22T00:42:19.604Z,100813.06
2022-10-22T00:42:32.170Z,100812.22
2022-10-22T00:42:44.854Z,100816.59
2022-10-22T00:42:58.153Z,100816.47
2022-10-22T00:43:11.756Z,100811.13
2022-10-22T00:43:24.432Z,100817.59
2022-10-22T00:43:56.673Z,100813.91
2022-10-22T00:44:47.720Z,100814.91
2022-10-22T00:45:20.032Z,100813.91
2022-10-22T00:45:32.584Z,100811.34
2022-10-22T00:45:45.398Z,100806.88
2022-10-22T00:45:58.090Z,100817.59
2022-10-22T00:46:10.671Z,100813.91
2022-10-22T00:46:23.383Z,100809.56
2022-10-22T00:46:35.937Z,100808.69
2022-10-22T00:46:49.716Z,100811.34
2022-10-22T00:47:02.304Z,100810.50
2022-10-22T00:47:15.925Z,100806.88
2022-10-22T00:47:31.585Z,100806.00
2022-10-22T00:47:49.162Z,100806.88
2022-10-22T00:48:05.522Z,100806.88
2022-10-22T00:48:23.083Z,100810.28
2022-10-22T00:48:35.729Z,100810.28
2022-10-22T00:48:48.316Z,100810.28
2022-10-22T00:49:04.180Z,100814.66
2022-10-22T00:49:16.744Z,100806.72
2022-10-22T00:49:29.648Z,100809.28
2022-10-22T00:49:43.366Z,100811.97
2022-10-22T00:49:57.506Z,100815.47
2022-10-22T00:50:16.943Z,100806.59
2022-10-22T00:50:33.772Z,100805.50
2022-10-22T00:50:50.583Z,100809.06
2022-10-22T00:51:06.517Z,100805.66
2022-10-22T00:51:22.788Z,100808.31
2022-10-22T00:51:36.297Z,100809.91
2022-10-22T00:51:49.063Z,100805.66
2022-10-22T00:52:01.635Z,100805.50
2022-10-22T00:52:14.736Z,100810.00
2022-10-22T00:52:28.496Z,100804.66
2022-10-22T00:52:41.742Z,100811.97
2022-10-22T00:52:56.343Z,100810.00
2022-10-22T00:53:13.452Z,100807.44
2022-10-22T00:53:30.245Z,100802.97
2022-10-22T00:53:46.880Z,100806.50
2022-10-22T00:54:04.557Z,100809.16
2022-10-22T00:54:17.158Z,100802.09
2022-10-22T00:54:29.772Z,100802.97
2022-10-22T00:54:42.726Z,100806.59
2022-10-22T00:54:58.842Z,100802.97
2022-10-22T00:55:14.294Z,100805.66
2022-10-22T00:55:29.143Z,100805.50
2022-10-22T00:55:43.881Z,100805.66
2022-10-22T00:55:56.734Z,100806.50
2022-10-22T00:56:10.577Z,100804.66
2022-10-22T00:56:23.900Z,100804.78
2022-10-22T00:56:37.568Z,100809.06
2022-10-22T00:56:50.172Z,100805.50
2022-10-22T00:57:02.762Z,100795.66
2022-10-22T00:57:16.456Z,100807.22
2022-10-22T00:57:29.068Z,100807.22
2022-10-22T00:57:42.051Z,100801.03
2022-10-22T00:57:58.285Z,100807.06
2022-10-22T00:58:12.866Z,100801.84
2022-10-22T00:58:28.304Z,100802.69
2022-10-22T00:58:45.668Z,100803.53
2022-10-22T00:59:00.725Z,100800.03
2022-10-22T00:59:14.403Z,100801.72
2022-10-22T00:59:28.510Z,100801.84
2022-10-22T00:59:41.210Z,100802.69
2022-10-22T00:59:56.015Z,100797.34
2022-10-22T01:00:10.024Z,100810.75
2022-10-22T01:00:22.642Z,100797.34
2022-10-22T01:00:35.692Z,100792.97
2022-10-22T01:00:49.766Z,100799.03
2022-10-22T01:01:03.271Z,100799.19
2022-10-22T01:01:21.661Z,100791.16
2022-10-22T01:01:34.565Z,100799.19
2022-10-22T01:01:47.168Z,100795.66
2022-10-22T01:01:59.942Z,100802.69
2022-10-22T01:02:12.533Z,100797.34
2022-10-22T01:02:25.210Z,100798.19
2022-10-22T01:02:39.454Z,100795.66
2022-10-22T01:02:53.645Z,100797.34
2022-10-22T01:03:06.759Z,100792.97
2022-10-22T01:03:19.430Z,100793.81
2022-10-22T01:03:32.734Z,100792.00
2022-10-22T01:03:45.676Z,100792.84
2022-10-22T01:04:00.158Z,100799.19
2022-10-22T01:04:12.918Z,100800.88
2022-10-22T01:04:25.582Z,100791.00
2022-10-22T01:04:38.364Z,100795.50
2022-10-22T01:04:50.947Z,100792.00
2022-10-22T01:05:03.888Z,100794.78
2022-10-22T01:05:16.989Z,100797.34
2022-10-22T01:05:33.712Z,100794.66
2022-10-22T01:05:52.708Z,100792.00
2022-10-22T01:06:06.282Z,100789.31
2022-10-22T01:06:24.196Z,100790.31
2022-10-22T01:06:36.754Z,100792.00
2022-10-22T01:06:50.759Z,100792.84
2022-10-22T01:07:03.442Z,100789.31
2022-10-22T01:07:18.532Z,100789.44
2022-10-22T01:07:31.553Z,100792.00
2022-10-22T01:07:47.032Z,100792.00
2022-10-22T01:08:00.276Z,100792.97
2022-10-22T01:08:24.425Z,100792.00
2022-10-22T01:08:48.057Z,100791.00
2022-10-22T01:09:12.536Z,100794.53
2022-10-22T01:09:32.923Z,100792.84
2022-10-22T01:09:50.503Z,100797.06
2022-10-22T01:10:11.515Z,100794.53
2022-10-22T01:10:50.197Z,100796.22
2022-10-22T01:11:15.185Z,100802.44
2022-10-22T01:11:35.887Z,100790.75
2022-10-22T01:12:01.299Z,100790.88
2022-10-22T01:12:23.345Z,100793.56
2022-10-22T01:12:47.244Z,100794.41
2022-10-22T01:13:14.862Z,100795.38
2022-10-22T01:13:52.469Z,100790.88
2022-10-22T01:14:16.672Z,100791.72
2022-10-22T01:14:36.570Z,100801.47
2022-10-22T01:15:03.655Z,100790.88
2022-10-22T01:15:25.126Z,100797.81
2022-10-22T01:15:45.029Z,100795.28
2022-10-22T01:16:03.274Z,100793.44
2022-10-22T01:16:21.837Z,100795.28
2022-10-22T01:16:44.558Z,100788.09
2022-10-22T01:17:05.004Z,100790.75
2022-10-22T01:17:24.775Z,100793.44
2022-10-22T01:17:47.738Z,100793.44
2022-10-22T01:18:07.757Z,100796.13
2022-10-22T01:18:24.729Z,100793.44
2022-10-22T01:18:48.086Z,100795.13
2022-10-22T01:19:14.149Z,100796.13
2022-10-22T01:19:48.053Z,100787.09
2022-10-22T01:20:11.869Z,100789.75
2022-10-22T01:20:41.525Z,100789.75
2022-10-22T01:21:07.148Z,100791.47
2022-10-22T01:21:32.716Z,100785.28
2022-10-22T01:21:50.122Z,100785.28
2022-10-22T01:22:09.138Z,100781.72
2022-10-22T01:22:29.554Z,100797.56
2022-10-22T01:22:46.490Z,100788.69
2022-10-22T01:23:09.164Z,100784.28
2022-10-22T01:23:43.235Z,100792.22
2022-10-22T01:24:19.088Z,100786.97
2022-10-22T01:24:42.189Z,100793.88
2022-10-22T01:24:58.808Z,100791.22
2022-10-22T01:25:20.246Z,100792.94
2022-10-22T01:25:36.874Z,100792.06
2022-10-22T01:25:57.026Z,100786.00
2022-10-22T01:26:17.888Z,100791.22
2022-10-22T01:26:43.796Z,100785.84
2022-10-22T01:27:25.614Z,100789.38
2022-10-22T01:27:55.019Z,100791.22
2022-10-22T01:28:19.722Z,100793.78
2022-10-22T01:28:57.296Z,100784.88
2022-10-22T01:29:14.516Z,100794.63
2022-10-22T01:29:31.021Z,100783.19
2022-10-22T01:29:48.624Z,100786.56
2022-10-22T01:30:04.329Z,100786.69
2022-10-22T01:30:19.422Z,100789.25
2022-10-22T01:30:32.093Z,100784.88
2022-10-22T01:30:46.352Z,100778.53
2022-10-22T01:31:01.200Z,100788.28
2022-10-22T01:31:16.073Z,100784.75
2022-10-22T01:31:33.396Z,100788.28
2022-10-22T01:31:50.397Z,100783.91
2022-10-22T01:32:11.660Z,100785.72
2022-10-22T01:32:27.478Z,100784.75
2022-10-22T01:32:44.108Z,100782.06
2022-10-22T01:33:01.768Z,100779.38
2022-10-22T01:33:17.955Z,100775.13
2022-10-22T01:33:32.708Z,100780.50
2022-10-22T01:33:48.006Z,100775.97
2022-10-22T01:34:02.885Z,100787.41
2022-10-22T01:34:19.404Z,100783.91
2022-10-22T01:34:33.545Z,100779.38
2022-10-22T01:34:53.031Z,100782.06
2022-10-22T01:35:09.920Z,100780.25
2022-10-22T01:35:27.970Z,100782.06
2022-10-22T01:35:46.211Z,100782.94
2022-10-22T01:36:00.157Z,100785.63
2022-10-22T01:36:14.473Z,100782.94
2022-10-22T01:36:30.031Z,100783.91
2022-10-22T01:36:44.055Z,100786.56
2022-10-22T01:36:59.380Z,100778.53
2022-10-22T01:37:14.132Z,100780.25
2022-10-22T01:37:31.466Z,100784.75
2022-10-22T01:37:49.018Z,100779.38
2022-10-22T01:38:05.911Z,100790.97
2022-10-22T01:38:23.317Z,100788.28
2022-10-22T01:38:37.728Z,100775.75
2022-10-22T01:38:51.757Z,100781.22
2022-10-22T01:39:08.500Z,100789.25
2022-10-22T01:39:23.355Z,100783.78
2022-10-22T01:39:38.673Z,100778.53
2022-10-22T01:39:52.688Z,100779.38
2022-10-22T01:40:08.415Z,100781.94
2022-10-22T01:40:23.186Z,100781.09
2022-10-22T01:40:38.002Z,100779.38
2022-10-22T01:40:52.044Z,100780.25
2022-10-22T01:41:05.150Z,100781.94
2022-10-22T01:41:18.483Z,100775.75
2022-10-22T01:41:31.504Z,100780.09
2022-10-22T01:41:45.505Z,100781.94
2022-10-22T01:42:00.359Z,100773.91
2022-10-22T01:42:14.002Z,100777.44
2022-10-22T01:42:26.711Z,100780.97
2022-10-22T01:42:39.309Z,100778.31
2022-10-22T01:43:00.205Z,100778.31
2022-10-22T01:43:13.845Z,100772.94
2022-10-22T01:43:26.467Z,100774.63
2022-10-22T01:43:39.048Z,100780.00
2022-10-22T01:43:53.021Z,100773.66
2022-10-22T01:44:05.716Z,100774.50
2022-10-22T01:44:26.259Z,100773.66
2022-10-22T01:44:39.029Z,100780.72
2022-10-22T01:44:51.756Z,100774.50
2022-10-22T01:45:12.744Z,100770.13
2022-10-22T01:45:25.840Z,100774.50
2022-10-22T01:45:42.485Z,100771.00
2022-10-22T01:45:59.306Z,100777.19
2022-10-22T01:46:13.525Z,100769.16
2022-10-22T01:46:30.788Z,100769.00
2022-10-22T01:46:43.605Z,100769.00
2022-10-22T01:47:05.606Z,100774.34
2022-10-22T01:47:27.804Z,100769.00
2022-10-22T01:47:51.550Z,100767.31
2022-10-22T01:48:17.580Z,100773.50
2022-10-22T01:48:46.030Z,100769.00
2022-10-22T01:49:17.484Z,100769.00
2022-10-22T01:49:41.014Z,100765.47
2022-10-22T01:50:14.470Z,100769.00
2022-10-22T01:50:50.018Z,100768.16
2022-10-22T01:51:18.282Z,100767.31
2022-10-22T01:51:48.280Z,100763.63
2022-10-22T01:52:10.616Z,100766.47
2022-10-22T01:52:33.690Z,100767.19
2022-10-22T01:53:11.890Z,100766.47
2022-10-22T01:53:37.491Z,100767.31
2022-10-22T01:53:54.359Z,100767.31
2022-10-22T01:54:20.798Z,100769.00
2022-10-22T01:54:40.400Z,100772.66
2022-10-22T01:55:02.446Z,100768.16
2022-10-22T01:55:26.130Z,100771.00
2022-10-22T01:55:48.641Z,100770.00
2022-10-22T01:56:17.276Z,100772.56
2022-10-22T01:56:48.798Z,100768.16
2022-10-22T01:57:13.588Z,100773.50
2022-10-22T01:57:33.616Z,100773.41
2022-10-22T01:57:53.772Z,100770.72
2022-10-22T01:58:18.656Z,100770.72
2022-10-22T01:58:42.294Z,100773.41
2022-10-22T01:59:04.735Z,100762.69
2022-10-22T01:59:28.273Z,100770.72
2022-10-22T01:59:51.711Z,100760.00
2022-10-22T02:00:08.622Z,100767.03
2022-10-22T02:00:22.073Z,100764.38
2022-10-22T02:00:40.213Z,100761.69
2022-10-22T02:01:00.506Z,100767.91
2022-10-22T02:01:23.664Z,100763.41
2022-10-22T02:01:41.780Z,100765.09
2022-10-22T02:02:00.067Z,100766.09
2022-10-22T02:02:25.884Z,100756.22
2022-10-22T02:02:44.553Z,100762.41
2022-10-22T02:03:02.381Z,100759.72
2022-10-22T02:03:23.645Z,100766.81
2022-10-22T02:03:42.112Z,100756.09
2022-10-22T02:04:02.516Z,100760.44
2022-10-22T02:04:20.096Z,100754.38
2022-10-22T02:04:41.714Z,100763.13
2022-10-22T02:04:58.980Z,100762.28
2022-10-22T02:05:18.558Z,100764.13
2022-10-22T02:05:36.901Z,100760.44
2022-10-22T02:05:52.036Z,100752.41
2022-10-22T02:06:10.563Z,100757.78
2022-10-22T02:06:25.634Z,100764.00
2022-10-22T02:06:42.694Z,100762.16
2022-10-22T02:07:00.347Z,100767.53
2022-10-22T02:07:17.424Z,100759.47
2022-10-22T02:07:34.714Z,100760.44
2022-10-22T02:07:51.400Z,100756.94
2022-10-22T02:08:07.944Z,100764.84
2022-10-22T02:08:24.418Z,100760.44
2022-10-22T02:08:38.740Z,100759.47
2022-10-22T02:08:53.798Z,100771.88
2022-10-22T02:09:07.681Z,100762.16
2022-10-22T02:09:24.420Z,100754.13
2022-10-22T02:09:40.338Z,100754.13
2022-10-22T02:09:55.087Z,100763.84
2022-10-22T02:10:11.251Z,100759.47
2022-10-22T02:10:25.002Z,100771.88
2022-10-22T02:10:39.698Z,100761.31
2022-10-22T02:10:54.332Z,100760.31
2022-10-22T02:11:07.815Z,100757.66
2022-10-22T02:11:20.796Z,100755.97
2022-10-22T02:11:33.507Z,100761.16
2022-10-22T02:11:48.772Z,100756.09
2022-10-22T02:12:23.004Z,100761.16
2022-10-22T02:12:37.275Z,100755.81
2022-10-22T02:12:53.544Z,100753.97
2022-10-22T02:13:09.937Z,100754.13
2022-10-22T02:13:27.073Z,100757.53
2022-10-22T02:13:44.627Z,100760.22
2022-10-22T02:14:02.466Z,100760.22
2022-10-22T02:14:17.993Z,100762.00
2022-10-22T02:14:32.058Z,100753.13
2022-10-22T02:14:46.628Z,100753.84
2022-10-22T02:15:01.245Z,100755.69
2022-10-22T02:15:16.245Z,100761.06
2022-10-22T02:15:31.461Z,100759.22
2022-10-22T02:15:46.808Z,100759.22
2022-10-22T02:16:00.976Z,100759.22
2022-10-22T02:16:19.066Z,100758.38
2022-10-22T02:16:37.506Z,100761.06
2022-10-22T02:16:50.914Z,100750.34
2022-10-22T02:17:06.522Z,100755.81
2022-10-22T02:17:21.976Z,100755.69
2022-10-22T02:17:37.417Z,100756.66
2022-10-22T02:17:51.890Z,100754.84
2022-10-22T02:18:09.816Z,100753.84
2022-10-22T02:18:26.954Z,100757.53
2022-10-22T02:18:42.612Z,100756.53
2022-10-22T02:18:58.444Z,100760.06
2022-10-22T02:19:17.689Z,100757.53
2022-10-22T02:19:41.769Z,100759.22
2022-10-22T02:19:58.710Z,100752.00
2022-10-22T02:20:16.895Z,100754.97
2022-10-22T02:20:33.257Z,100752.88
2022-10-22T02:20:46.056Z,100755.56
2022-10-22T02:21:00.236Z,100752.00
2022-10-22T02:21:13.048Z,100751.06
2022-10-22T02:21:28.203Z,100751.06
2022-10-22T02:21:41.151Z,100747.53
2022-10-22T02:21:54.772Z,100757.25
2022-10-22T02:22:08.026Z,100752.00
2022-10-22T02:22:21.416Z,100753.84
2022-10-22T02:22:34.520Z,100748.38
2022-10-22T02:22:47.547Z,100755.56
2022-10-22T02:23:01.848Z,100755.56
2022-10-22T02:23:15.183Z,100754.56
2022-10-22T02:23:28.762Z,100750.22
2022-10-22T02:23:41.665Z,100761.66
2022-10-22T02:23:54.631Z,100753.72
2022-10-22T02:24:08.101Z,100753.63
2022-10-22T02:24:22.956Z,100753.63
2022-10-22T02:24:35.824Z,100749.22
2022-10-22T02:24:49.882Z,100753.63
2022-10-22T02:25:03.003Z,100749.09
2022-10-22T02:25:16.612Z,100747.25
2022-10-22T02:25:32.767Z,100749.09
2022-10-22T02:25:51.530Z,100753.63
2022-10-22T02:26:10.771Z,100746.41
2022-10-22T02:26:28.244Z,100749.09
2022-10-22T02:26:46.960Z,100752.63
2022-10-22T02:27:07.454Z,100744.56
2022-10-22T02:27:26.866Z,100750.78
2022-10-22T02:27:44.564Z,100743.72
2022-10-22T02:28:03.892Z,100746.28
2022-10-22T02:28:24.944Z,100745.41
2022-10-22T02:28:46.345Z,100748.09
2022-10-22T02:29:06.755Z,100744.56
2022-10-22T02:29:24.596Z,100747.13
2022-10-22T02:29:41.485Z,100753.47
2022-10-22T02:30:02.056Z,100750.78
2022-10-22T02:30:17.674Z,100748.09
2022-10-22T02:30:33.055Z,100749.81
2022-10-22T02:30:52.053Z,100744.47
2022-10-22T02:31:14.604Z,100744.47
2022-10-22T02:31:31.100Z,100742.63
2022-10-22T02:31:47.995Z,100747.97
2022-10-22T02:32:03.722Z,100738.25
2022-10-22T02:32:21.684Z,100739.22
2022-10-22T02:32:40.226Z,100739.94
2022-10-22T02:33:00.321Z,100749.66
2022-10-22T02:33:18.174Z,100745.28
2022-10-22T02:33:34.984Z,100746.97
2022-10-22T02:33:51.079Z,100747.84
2022-10-22T02:34:08.952Z,100744.31
2022-10-22T02:34:27.221Z,100742.63
2022-10-22T02:34:40.330Z,100738.94
2022-10-22T02:34:54.320Z,100750.53
2022-10-22T02:35:09.119Z,100733.59
2022-10-22T02:35:25.180Z,100737.25
2022-10-22T02:35:41.141Z,100741.63
2022-10-22T02:35:56.556Z,100736.25
2022-10-22T02:36:09.889Z,100736.25
2022-10-22T02:36:23.897Z,100738.94
2022-10-22T02:36:38.782Z,100738.94
2022-10-22T02:36:52.364Z,100740.66
2022-10-22T02:37:06.654Z,100736.97
2022-10-22T02:37:20.981Z,100739.81
2022-10-22T02:37:34.288Z,100739.81
2022-10-22T02:37:47.490Z,100739.81
2022-10-22T02:38:01.021Z,100741.50
2022-10-22T02:38:13.918Z,100740.66
2022-10-22T02:38:28.388Z,100740.66
2022-10-22T02:38:42.760Z,100740.66
2022-10-22T02:38:56.349Z,100735.28
2022-10-22T02:39:12.200Z,100737.97
2022-10-22T02:39:26.145Z,100745.03
2022-10-22T02:39:39.624Z,100742.34
2022-10-22T02:39:52.732Z,100742.50
2022-10-22T02:40:06.739Z,100739.81
2022-10-22T02:40:20.325Z,100737.13
2022-10-22T02:40:34.448Z,100738.09
2022-10-22T02:40:47.362Z,100746.00
2022-10-22T02:41:00.118Z,100741.63
2022-10-22T02:41:12.924Z,100741.63
2022-10-22T02:41:25.661Z,100740.66
2022-10-22T02:41:38.520Z,100742.63
2022-10-22T02:41:51.106Z,100738.94
2022-10-22T02:42:05.039Z,100744.19
2022-10-22T02:42:18.328Z,100746.00
2022-10-22T02:42:31.077Z,100744.31
2022-10-22T02:42:46.489Z,100750.38
2022-10-22T02:42:59.481Z,100745.03
2022-10-22T02:43:12.080Z,100741.50
2022-10-22T02:43:26.319Z,100746.00
2022-10-22T02:43:43.094Z,100741.50
2022-10-22T02:43:56.252Z,100743.34
2022-10-22T02:44:11.220Z,100743.34
2022-10-22T02:44:24.514Z,100742.34
2022-10-22T02:44:37.103Z,100733.59
2022-10-22T02:44:50.689Z,100744.06
2022-10-22T02:45:04.175Z,100747.69
2022-10-22T02:45:18.104Z,100745.03
2022-10-22T02:45:31.055Z,100742.34
2022-10-22T02:45:43.752Z,100743.22
2022-10-22T02:45:56.348Z,100736.03
2022-10-22T02:46:09.405Z,100736.97
2022-10-22T02:46:22.876Z,100744.06
2022-10-22T02:46:37.043Z,100745.75
2022-10-22T02:46:50.316Z,100743.06
2022-10-22T02:47:02.934Z,100743.06
2022-10-22T02:47:15.562Z,100740.38
2022-10-22T02:47:28.162Z,100740.38
2022-10-22T02:47:40.783Z,100741.25
2022-10-22T02:47:53.376Z,100747.47
2022-10-22T02:48:06.505Z,100746.47
2022-10-22T02:48:33.625Z,100741.09
2022-10-22T02:48:46.452Z,100741.25
2022-10-22T02:48:59.055Z,100735.91
2022-10-22T02:49:11.664Z,100743.78
2022-10-22T02:49:24.256Z,100738.41
2022-10-22T02:49:36.862Z,100743.78
2022-10-22T02:49:50.448Z,100743.06
2022-10-22T02:50:05.458Z,100747.34
2022-10-22T02:50:20.587Z,100733.22
2022-10-22T02:50:33.173Z,100738.41
2022-10-22T02:50:45.866Z,100739.41
2022-10-22T02:50:58.638Z,100738.41
2022-10-22T02:51:11.291Z,100737.56
2022-10-22T02:51:24.080Z,100743.78
2022-10-22T02:51:37.694Z,100749.13
2022-10-22T02:51:50.268Z,100744.66
2022-10-22T02:52:02.923Z,100739.41
2022-10-22T02:52:15.524Z,100742.81
2022-10-22T02:52:28.138Z,100741.97
2022-10-22T02:52:41.028Z,100744.66
2022-10-22T02:52:53.890Z,100739.28
2022-10-22T02:53:06.493Z,100745.50
2022-10-22T02:53:20.127Z,100743.78
2022-10-22T02:53:32.820Z,100735.75
2022-10-22T02:53:45.688Z,100736.63
2022-10-22T02:53:58.409Z,100740.97
2022-10-22T02:54:11.024Z,100740.97
2022-10-22T02:54:23.685Z,100740.13
2022-10-22T02:54:37.286Z,100740.97
2022-10-22T02:54:49.921Z,100740.13
2022-10-22T02:55:02.808Z,100741.81
2022-10-22T02:55:15.505Z,100741.81
2022-10-22T02:55:28.204Z,100746.22
2022-10-22T02:55:40.817Z,100749.88
2022-10-22T02:55:53.418Z,100746.22
2022-10-22T02:56:07.661Z,100745.34
2022-10-22T02:56:20.282Z,100743.53
2022-10-22T02:56:33.073Z,100743.66
2022-10-22T02:56:45.660Z,100740.13
2022-10-22T02:56:58.256Z,100746.22
2022-10-22T02:57:10.980Z,100741.81
2022-10-22T02:57:24.600Z,100747.19
2022-10-22T02:57:37.475Z,100747.19
2022-10-22T02:57:50.290Z,100748.19
2022-10-22T02:58:02.966Z,100743.53
2022-10-22T02:58:15.561Z,100744.50
2022-10-22T02:58:28.156Z,100749.88
2022-10-22T02:58:40.750Z,100741.97
2022-10-22T02:58:53.372Z,100739.28
2022-10-22T02:59:07.152Z,100742.81
2022-10-22T02:59:21.344Z,100745.50
2022-10-22T02:59:34.306Z,100749.88
2022-10-22T02:59:46.948Z,100745.50
2022-10-22T02:59:59.792Z,100756.22
2022-10-22T03:00:13.407Z,100750.84
2022-10-22T03:00:27.226Z,100750.84
2022-10-22T03:00:39.989Z,100747.19
2022-10-22T03:00:52.657Z,100747.19